sensor_id;sensor_type;location;lat;lon;timestamp;pressure;altitude;pressure_sealevel;temperature;humidity
62634;BME280;48704;50.534;6.442;2024-01-15T00:01:42;94271.00;;;-3.40;100.00
62634;BME280;48704;50.534;6.442;2024-01-15T00:04:07;94273.72;;;-3.40;100.00
62634;BME280;48704;50.534;6.442;2024-01-15T00:06:32;94258.63;;;-3.45;100.00
62634;BME280;48704;50.534;6.442;2024-01-15T00:08:58;94256.44;;;-3.33;100.00
62634;BME280;48704;50.534;6.442;2024-01-15T00:11:23;94244.19;;;-3.42;100.00
62634;BME280;48704;50.534;6.442;2024-01-15T00:13:49;94240.88;;;-3.53;100.00
62634;BME280;48704;50.534;6.442;2024-01-15T00:16:14;94241.16;;;-3.47;100.00
62634;BME280;48704;50.534;6.442;2024-01-15T00:18:39;94243.47;;;-3.46;100.00
62634;BME280;48704;50.534;6.442;2024-01-15T00:21:05;94253.03;;;-3.38;100.00
62634;BME280;48704;50.534;6.442;2024-01-15T00:23:30;94245.88;;;-3.31;100.00
62634;BME280;48704;50.534;6.442;2024-01-15T00:25:56;94247.41;;;-3.30;100.00
62634;BME280;48704;50.534;6.442;2024-01-15T00:28:21;94235.69;;;-3.27;100.00
62634;BME280;48704;50.534;6.442;2024-01-15T00:30:46;94243.03;;;-3.24;100.00
62634;BME280;48704;50.534;6.442;2024-01-15T00:33:11;94236.38;;;-3.23;100.00
62634;BME280;48704;50.534;6.442;2024-01-15T00:35:37;94227.03;;;-3.22;100.00
62634;BME280;48704;50.534;6.442;2024-01-15T00:38:03;94220.13;;;-3.27;100.00
62634;BME280;48704;50.534;6.442;2024-01-15T00:40:28;94228.56;;;-3.21;100.00
62634;BME280;48704;50.534;6.442;2024-01-15T00:42:53;94228.56;;;-3.21;100.00
62634;BME280;48704;50.534;6.442;2024-01-15T00:45:19;94222.75;;;-3.23;100.00
62634;BME280;48704;50.534;6.442;2024-01-15T00:47:44;94218.00;;;-3.19;100.00
62634;BME280;48704;50.534;6.442;2024-01-15T00:50:09;94202.00;;;-3.17;100.00
62634;BME280;48704;50.534;6.442;2024-01-15T00:52:35;94205.56;;;-3.20;100.00
62634;BME280;48704;50.534;6.442;2024-01-15T00:55:00;94214.50;;;-3.20;100.00
62634;BME280;48704;50.534;6.442;2024-01-15T00:57:25;94209.13;;;-3.23;100.00
62634;BME280;48704;50.534;6.442;2024-01-15T00:59:51;94215.97;;;-3.15;100.00
62634;BME280;48704;50.534;6.442;2024-01-15T01:02:16;94207.47;;;-3.17;100.00
62634;BME280;48704;50.534;6.442;2024-01-15T01:04:41;94207.81;;;-3.15;100.00
62634;BME280;48704;50.534;6.442;2024-01-15T01:07:07;94212.13;;;-3.18;100.00
62634;BME280;48704;50.534;6.442;2024-01-15T01:09:32;94205.91;;;-3.18;100.00
62634;BME280;48704;50.534;6.442;2024-01-15T01:11:58;94202.69;;;-3.13;100.00
62634;BME280;48704;50.534;6.442;2024-01-15T01:14:23;94196.56;;;-3.17;100.00
62634;BME280;48704;50.534;6.442;2024-01-15T01:16:48;94211.22;;;-3.11;100.00
62634;BME280;48704;50.534;6.442;2024-01-15T01:19:14;94199.47;;;-3.08;100.00
62634;BME280;48704;50.534;6.442;2024-01-15T01:21:39;94197.88;;;-3.06;100.00
62634;BME280;48704;50.534;6.442;2024-01-15T01:24:08;94206.81;;;-3.05;100.00
62634;BME280;48704;50.534;6.442;2024-01-15T01:26:33;94197.44;;;-3.04;100.00
62634;BME280;48704;50.534;6.442;2024-01-15T01:28:59;94192.69;;;-3.00;100.00
62634;BME280;48704;50.534;6.442;2024-01-15T01:31:24;94192.91;;;-2.94;100.00
62634;BME280;48704;50.534;6.442;2024-01-15T01:33:50;94199.91;;;-2.93;100.00
62634;BME280;48704;50.534;6.442;2024-01-15T01:36:15;94201.44;;;-2.92;100.00
62634;BME280;48704;50.534;6.442;2024-01-15T01:38:41;94189.69;;;-2.89;100.00
62634;BME280;48704;50.534;6.442;2024-01-15T01:41:06;94184.16;;;-2.86;100.00
62634;BME280;48704;50.534;6.442;2024-01-15T01:43:32;94176.31;;;-2.84;100.00
62634;BME280;48704;50.534;6.442;2024-01-15T01:45:57;94171.38;;;-2.89;100.00
62634;BME280;48704;50.534;6.442;2024-01-15T01:48:26;94178.34;;;-2.88;100.00
62634;BME280;48704;50.534;6.442;2024-01-15T01:50:57;94180.41;;;-2.92;100.00
62634;BME280;48704;50.534;6.442;2024-01-15T01:53:23;94178.09;;;-2.93;100.00
62634;BME280;48704;50.534;6.442;2024-01-15T01:55:50;94181.25;;;-2.95;100.00
62634;BME280;48704;50.534;6.442;2024-01-15T01:58:15;94187.38;;;-2.91;100.00
62634;BME280;48704;50.534;6.442;2024-01-15T02:00:41;94189.84;;;-2.96;100.00
62634;BME280;48704;50.534;6.442;2024-01-15T02:03:07;94184.66;;;-2.91;100.00
62634;BME280;48704;50.534;6.442;2024-01-15T02:05:34;94189.84;;;-2.96;100.00
62634;BME280;48704;50.534;6.442;2024-01-15T02:08:04;94188.41;;;-3.01;100.00
62634;BME280;48704;50.534;6.442;2024-01-15T02:10:39;94183.91;;;-3.08;100.00
62634;BME280;48704;50.534;6.442;2024-01-15T02:13:14;94189.34;;;-3.08;100.00
62634;BME280;48704;50.534;6.442;2024-01-15T02:15:43;94183.97;;;-3.11;100.00
62634;BME280;48704;50.534;6.442;2024-01-15T02:18:08;94187.88;;;-3.12;100.00
62634;BME280;48704;50.534;6.442;2024-01-15T02:20:34;94190.97;;;-3.10;100.00
62634;BME280;48704;50.534;6.442;2024-01-15T02:23:09;94187.72;;;-3.05;100.00
62634;BME280;48704;50.534;6.442;2024-01-15T02:25:37;94195.91;;;-3.05;100.00
62634;BME280;48704;50.534;6.442;2024-01-15T02:28:03;94187.22;;;-3.00;100.00
62634;BME280;48704;50.534;6.442;2024-01-15T02:30:29;94185.34;;;-3.03;100.00
62634;BME280;48704;50.534;6.442;2024-01-15T02:32:55;94194.72;;;-3.04;100.00
62634;BME280;48704;50.534;6.442;2024-01-15T02:35:20;94189.25;;;-3.04;100.00
62634;BME280;48704;50.534;6.442;2024-01-15T02:37:46;94194.38;;;-3.06;100.00
62634;BME280;48704;50.534;6.442;2024-01-15T02:40:11;94194.72;;;-3.04;100.00
62634;BME280;48704;50.534;6.442;2024-01-15T02:42:36;94194.78;;;-3.08;100.00
62634;BME280;48704;50.534;6.442;2024-01-15T02:45:03;94194.44;;;-3.10;100.00
62634;BME280;48704;50.534;6.442;2024-01-15T02:47:28;94203.31;;;-3.06;100.00
62634;BME280;48704;50.534;6.442;2024-01-15T02:49:54;94197.09;;;-3.06;100.00
62634;BME280;48704;50.534;6.442;2024-01-15T02:52:23;94192.56;;;-2.96;100.00
62634;BME280;48704;50.534;6.442;2024-01-15T02:54:49;94188.41;;;-3.01;100.00
62634;BME280;48704;50.534;6.442;2024-01-15T02:57:14;94174.38;;;-2.99;100.00
62634;BME280;48704;50.534;6.442;2024-01-15T02:59:40;94182.44;;;-2.96;100.00
62634;BME280;48704;50.534;6.442;2024-01-15T03:02:05;94176.16;;;-3.09;100.00
62634;BME280;48704;50.534;6.442;2024-01-15T03:04:30;94174.53;;;-3.07;100.00
62634;BME280;48704;50.534;6.442;2024-01-15T03:06:55;94179.91;;;-3.03;100.00
62634;BME280;48704;50.534;6.442;2024-01-15T03:09:21;94187.22;;;-3.00;100.00
62634;BME280;48704;50.534;6.442;2024-01-15T03:11:46;94175.97;;;-3.02;100.00
62634;BME280;48704;50.534;6.442;2024-01-15T03:14:12;94178.38;;;-3.04;100.00
62634;BME280;48704;50.534;6.442;2024-01-15T03:16:37;94173.69;;;-3.04;100.00
62634;BME280;48704;50.534;6.442;2024-01-15T03:19:02;94179.22;;;-3.07;100.00
62634;BME280;48704;50.534;6.442;2024-01-15T03:21:28;94182.28;;;-3.05;100.00
62634;BME280;48704;50.534;6.442;2024-01-15T03:23:53;94174.09;;;-3.05;100.00
62634;BME280;48704;50.534;6.442;2024-01-15T03:26:18;94169.00;;;-3.03;100.00
62634;BME280;48704;50.534;6.442;2024-01-15T03:28:44;94170.53;;;-3.02;100.00
62634;BME280;48704;50.534;6.442;2024-01-15T03:31:09;94168.16;;;-3.00;100.00
62634;BME280;48704;50.534;6.442;2024-01-15T03:33:34;94172.06;;;-3.01;100.00
62634;BME280;48704;50.534;6.442;2024-01-15T03:36:00;94186.19;;;-3.06;100.00
62634;BME280;48704;50.534;6.442;2024-01-15T03:38:28;94178.94;;;-2.96;100.00
62634;BME280;48704;50.534;6.442;2024-01-15T03:40:53;94173.59;;;-3.00;100.00
62634;BME280;48704;50.534;6.442;2024-01-15T03:43:19;94169.69;;;-2.99;100.00
62634;BME280;48704;50.534;6.442;2024-01-15T03:45:44;94178.94;;;-2.96;100.00
62634;BME280;48704;50.534;6.442;2024-01-15T03:48:09;94179.06;;;-3.00;100.00
62634;BME280;48704;50.534;6.442;2024-01-15T03:50:35;94164.25;;;-2.99;100.00
62634;BME280;48704;50.534;6.442;2024-01-15T03:53:00;94166.53;;;-2.97;100.00
62634;BME280;48704;50.534;6.442;2024-01-15T03:55:25;94173.94;;;-2.98;100.00
62634;BME280;48704;50.534;6.442;2024-01-15T03:57:50;94171.88;;;-2.94;100.00
62634;BME280;48704;50.534;6.442;2024-01-15T04:00:16;94163.69;;;-2.94;100.00
62634;BME280;48704;50.534;6.442;2024-01-15T04:02:44;94161.66;;;-2.90;100.00
62634;BME280;48704;50.534;6.442;2024-01-15T04:08:23;94149.41;;;-2.82;100.00
62634;BME280;48704;50.534;6.442;2024-01-15T04:10:52;94158.25;;;-2.78;100.00
62634;BME280;48704;50.534;6.442;2024-01-15T04:13:20;94154.25;;;-2.73;100.00
62634;BME280;48704;50.534;6.442;2024-01-15T04:15:46;94146.84;;;-2.73;100.00
62634;BME280;48704;50.534;6.442;2024-01-15T04:18:11;94146.41;;;-2.71;100.00
62634;BME280;48704;50.534;6.442;2024-01-15T04:20:36;94147.88;;;-2.66;100.00
62634;BME280;48704;50.534;6.442;2024-01-15T04:23:01;94145.16;;;-2.66;100.00
62634;BME280;48704;50.534;6.442;2024-01-15T04:25:27;94140.03;;;-2.64;100.00
62634;BME280;48704;50.534;6.442;2024-01-15T04:27:52;94133.47;;;-2.67;100.00
62634;BME280;48704;50.534;6.442;2024-01-15T04:30:17;94137.41;;;-2.68;100.00
62634;BME280;48704;50.534;6.442;2024-01-15T04:32:43;94137.72;;;-2.66;100.00
62634;BME280;48704;50.534;6.442;2024-01-15T04:35:08;94126.75;;;-2.62;100.00
62634;BME280;48704;50.534;6.442;2024-01-15T04:37:33;94124.00;;;-2.62;100.00
62634;BME280;48704;50.534;6.442;2024-01-15T04:39:59;94125.19;;;-2.63;100.00
62634;BME280;48704;50.534;6.442;2024-01-15T04:42:34;94122.81;;;-2.61;100.00
62634;BME280;48704;50.534;6.442;2024-01-15T04:45:00;94121.28;;;-2.62;100.00
62634;BME280;48704;50.534;6.442;2024-01-15T04:47:25;94125.34;;;-2.54;100.00
62634;BME280;48704;50.534;6.442;2024-01-15T04:49:50;94120.41;;;-2.59;100.00
62634;BME280;48704;50.534;6.442;2024-01-15T04:52:16;94119.53;;;-2.56;100.00
62634;BME280;48704;50.534;6.442;2024-01-15T04:54:41;94124.66;;;-2.58;100.00
62634;BME280;48704;50.534;6.442;2024-01-15T04:57:06;94124.00;;;-2.62;100.00
62634;BME280;48704;50.534;6.442;2024-01-15T04:59:32;94117.16;;;-2.54;100.00
62634;BME280;48704;50.534;6.442;2024-01-15T05:01:57;94121.84;;;-2.55;100.00
62634;BME280;48704;50.534;6.442;2024-01-15T05:04:23;94111.63;;;-2.51;100.00
62634;BME280;48704;50.534;6.442;2024-01-15T05:06:49;94117.84;;;-2.50;100.00
62634;BME280;48704;50.534;6.442;2024-01-15T05:09:15;94121.09;;;-2.55;100.00
62634;BME280;48704;50.534;6.442;2024-01-15T05:11:40;94112.47;;;-2.54;100.00
62634;BME280;48704;50.534;6.442;2024-01-15T05:14:05;94109.31;;;-2.52;100.00
62634;BME280;48704;50.534;6.442;2024-01-15T05:16:31;94107.78;;;-2.53;100.00
62634;BME280;48704;50.534;6.442;2024-01-15T05:18:56;94113.81;;;-2.46;100.00
62634;BME280;48704;50.534;6.442;2024-01-15T05:21:21;94110.84;;;-2.51;100.00
62634;BME280;48704;50.534;6.442;2024-01-15T05:23:46;94102.41;;;-2.57;100.00
62634;BME280;48704;50.534;6.442;2024-01-15T05:26:12;94102.66;;;-2.51;100.00
62634;BME280;48704;50.534;6.442;2024-01-15T05:28:37;94107.00;;;-2.54;100.00
62634;BME280;48704;50.534;6.442;2024-01-15T05:31:02;94106.59;;;-2.52;100.00
62634;BME280;48704;50.534;6.442;2024-01-15T05:33:29;94101.66;;;-2.57;100.00
62634;BME280;48704;50.534;6.442;2024-01-15T05:35:54;94094.78;;;-2.62;100.00
62634;BME280;48704;50.534;6.442;2024-01-15T05:38:20;94101.31;;;-2.59;100.00
62634;BME280;48704;50.534;6.442;2024-01-15T05:40:45;94100.13;;;-2.58;100.00
62634;BME280;48704;50.534;6.442;2024-01-15T05:43:10;94097.09;;;-2.60;100.00
62634;BME280;48704;50.534;6.442;2024-01-15T05:45:38;94100.03;;;-2.55;100.00
62634;BME280;48704;50.534;6.442;2024-01-15T05:48:04;94094.47;;;-2.51;100.00
62634;BME280;48704;50.534;6.442;2024-01-15T05:50:29;94103.19;;;-2.56;100.00
62634;BME280;48704;50.534;6.442;2024-01-15T05:52:55;94094.47;;;-2.51;100.00
62634;BME280;48704;50.534;6.442;2024-01-15T05:55:20;94106.75;;;-2.43;100.00
62634;BME280;48704;50.534;6.442;2024-01-15T05:57:45;94096.16;;;-2.41;100.00
62634;BME280;48704;50.534;6.442;2024-01-15T06:00:11;94104.34;;;-2.41;100.00
62634;BME280;48704;50.534;6.442;2024-01-15T06:02:37;94098.91;;;-2.41;100.00
62634;BME280;48704;50.534;6.442;2024-01-15T06:05:04;94102.81;;;-2.42;100.00
62634;BME280;48704;50.534;6.442;2024-01-15T06:07:29;94109.47;;;-2.43;100.00
62634;BME280;48704;50.534;6.442;2024-01-15T06:09:54;94090.72;;;-2.41;100.00
62634;BME280;48704;50.534;6.442;2024-01-15T06:12:22;94095.75;;;-2.40;100.00
62634;BME280;48704;50.534;6.442;2024-01-15T06:14:47;94093.00;;;-2.40;100.00
62634;BME280;48704;50.534;6.442;2024-01-15T06:17:13;94091.47;;;-2.41;100.00
62634;BME280;48704;50.534;6.442;2024-01-15T06:19:38;94089.09;;;-2.39;100.00
62634;BME280;48704;50.534;6.442;2024-01-15T06:22:03;94092.16;;;-2.37;100.00
62634;BME280;48704;50.534;6.442;2024-01-15T06:24:28;94086.47;;;-2.42;100.00
62634;BME280;48704;50.534;6.442;2024-01-15T06:26:54;94076.41;;;-2.45;100.00
62634;BME280;48704;50.534;6.442;2024-01-15T06:29:19;94095.06;;;-2.44;100.00
62634;BME280;48704;50.534;6.442;2024-01-15T06:31:44;94085.97;;;-2.53;100.00
62634;BME280;48704;50.534;6.442;2024-01-15T06:34:10;94078.13;;;-2.51;100.00
62634;BME280;48704;50.534;6.442;2024-01-15T06:36:35;94085.09;;;-2.50;100.00
62634;BME280;48704;50.534;6.442;2024-01-15T06:39:00;94081.28;;;-2.53;100.00
62634;BME280;48704;50.534;6.442;2024-01-15T06:41:25;94074.38;;;-2.57;100.00
62634;BME280;48704;50.534;6.442;2024-01-15T06:43:51;94080.59;;;-2.57;100.00
62634;BME280;48704;50.534;6.442;2024-01-15T06:46:23;94085.28;;;-2.57;100.00
62634;BME280;48704;50.534;6.442;2024-01-15T06:48:49;94079.19;;;-2.61;100.00
62634;BME280;48704;50.534;6.442;2024-01-15T06:51:15;94076.78;;;-2.59;100.00
62634;BME280;48704;50.534;6.442;2024-01-15T06:53:41;94079.19;;;-2.61;100.00
62634;BME280;48704;50.534;6.442;2024-01-15T06:56:06;94072.19;;;-2.62;100.00
62634;BME280;48704;50.534;6.442;2024-01-15T06:58:32;94069.34;;;-2.59;100.00
62634;BME280;48704;50.534;6.442;2024-01-15T07:00:57;94067.41;;;-2.58;100.00
62634;BME280;48704;50.534;6.442;2024-01-15T07:03:23;94066.75;;;-2.62;100.00
62634;BME280;48704;50.534;6.442;2024-01-15T07:05:48;94066.41;;;-2.64;100.00
62634;BME280;48704;50.534;6.442;2024-01-15T07:08:13;94053.63;;;-2.67;100.00
62634;BME280;48704;50.534;6.442;2024-01-15T07:10:39;94048.94;;;-2.67;100.00
62634;BME280;48704;50.534;6.442;2024-01-15T07:13:04;94070.34;;;-2.65;100.00
62634;BME280;48704;50.534;6.442;2024-01-15T07:15:30;94066.41;;;-2.64;100.00
62634;BME280;48704;50.534;6.442;2024-01-15T07:17:56;94068.38;;;-2.65;100.00
62634;BME280;48704;50.534;6.442;2024-01-15T07:20:21;94057.38;;;-2.61;100.00
62634;BME280;48704;50.534;6.442;2024-01-15T07:22:47;94052.69;;;-2.61;100.00
62634;BME280;48704;50.534;6.442;2024-01-15T07:25:12;94070.38;;;-2.53;100.00
62634;BME280;48704;50.534;6.442;2024-01-15T07:27:38;94061.41;;;-2.53;100.00
62634;BME280;48704;50.534;6.442;2024-01-15T07:30:04;94063.13;;;-2.59;100.00
62634;BME280;48704;50.534;6.442;2024-01-15T07:32:30;94062.44;;;-2.47;100.00
62634;BME280;48704;50.534;6.442;2024-01-15T07:34:56;94062.53;;;-2.51;100.00
62634;BME280;48704;50.534;6.442;2024-01-15T07:37:22;94060.91;;;-2.48;100.00
62634;BME280;48704;50.534;6.442;2024-01-15T07:39:48;94053.56;;;-2.51;100.00
62634;BME280;48704;50.534;6.442;2024-01-15T07:42:14;94063.63;;;-2.48;100.00
62634;BME280;48704;50.534;6.442;2024-01-15T07:44:39;94066.34;;;-2.48;100.00
62634;BME280;48704;50.534;6.442;2024-01-15T07:47:04;94071.81;;;-2.48;100.00
62634;BME280;48704;50.534;6.442;2024-01-15T07:49:30;94060.13;;;-2.49;100.00
62634;BME280;48704;50.534;6.442;2024-01-15T07:51:56;94061.66;;;-2.48;100.00
62634;BME280;48704;50.534;6.442;2024-01-15T07:54:21;94068.75;;;-2.50;100.00
62634;BME280;48704;50.534;6.442;2024-01-15T07:56:59;94064.16;;;-2.53;100.00
62634;BME280;48704;50.534;6.442;2024-01-15T07:59:25;94061.00;;;-2.52;100.00
62634;BME280;48704;50.534;6.442;2024-01-15T08:01:51;94068.84;;;-2.54;100.00
62634;BME280;48704;50.534;6.442;2024-01-15T08:04:17;94064.25;;;-2.57;100.00
62634;BME280;48704;50.534;6.442;2024-01-15T08:06:42;94069.81;;;-2.60;100.00
62634;BME280;48704;50.534;6.442;2024-01-15T08:09:08;94061.94;;;-2.58;100.00
62634;BME280;48704;50.534;6.442;2024-01-15T08:11:34;94061.09;;;-2.55;100.00
62634;BME280;48704;50.534;6.442;2024-01-15T08:13:59;94064.16;;;-2.53;100.00
62634;BME280;48704;50.534;6.442;2024-01-15T08:16:24;94066.53;;;-2.55;100.00
62634;BME280;48704;50.534;6.442;2024-01-15T08:18:50;94069.59;;;-2.53;100.00
62634;BME280;48704;50.534;6.442;2024-01-15T08:21:15;94054.78;;;-2.52;100.00
62634;BME280;48704;50.534;6.442;2024-01-15T08:23:41;94066.53;;;-2.55;100.00
62634;BME280;48704;50.534;6.442;2024-01-15T08:26:07;94057.59;;;-2.56;100.00
62634;BME280;48704;50.534;6.442;2024-01-15T08:28:32;94058.91;;;-2.60;100.00
62634;BME280;48704;50.534;6.442;2024-01-15T08:30:58;94071.66;;;-2.57;100.00
62634;BME280;48704;50.534;6.442;2024-01-15T08:33:23;94057.50;;;-2.52;100.00
62634;BME280;48704;50.534;6.442;2024-01-15T08:35:48;94048.47;;;-2.49;100.00
62634;BME280;48704;50.534;6.442;2024-01-15T08:38:13;94062.09;;;-2.49;100.00
62634;BME280;48704;50.534;6.442;2024-01-15T08:40:39;94050.75;;;-2.48;100.00
62634;BME280;48704;50.534;6.442;2024-01-15T08:43:04;94072.28;;;-2.37;100.00
62634;BME280;48704;50.534;6.442;2024-01-15T08:45:31;94071.63;;;-2.41;100.00
62634;BME280;48704;50.534;6.442;2024-01-15T08:47:57;94067.69;;;-2.40;100.00
62634;BME280;48704;50.534;6.442;2024-01-15T08:50:22;94069.13;;;-2.36;100.00
62634;BME280;48704;50.534;6.442;2024-01-15T08:52:47;94066.66;;;-2.30;100.00
62634;BME280;48704;50.534;6.442;2024-01-15T08:55:12;94059.13;;;-2.26;100.00
62634;BME280;48704;50.534;6.442;2024-01-15T08:57:38;94062.72;;;-2.29;100.00
62634;BME280;48704;50.534;6.442;2024-01-15T09:00:04;94071.34;;;-2.30;100.00
62634;BME280;48704;50.534;6.442;2024-01-15T09:02:33;94071.69;;;-2.28;100.00
62634;BME280;48704;50.534;6.442;2024-01-15T09:04:59;94069.50;;;-2.21;100.00
62634;BME280;48704;50.534;6.442;2024-01-15T09:07:24;94076.69;;;-2.27;100.00
62634;BME280;48704;50.534;6.442;2024-01-15T09:09:51;94082.72;;;-2.19;100.00
62634;BME280;48704;50.534;6.442;2024-01-15T09:12:16;94075.63;;;-2.17;100.00
62634;BME280;48704;50.534;6.442;2024-01-15T09:14:43;94091.59;;;-2.03;100.00
62634;BME280;48704;50.534;6.442;2024-01-15T09:17:08;94090.25;;;-2.11;100.00
62634;BME280;48704;50.534;6.442;2024-01-15T09:19:34;94107.31;;;-2.07;100.00
62634;BME280;48704;50.534;6.442;2024-01-15T09:21:59;94108.19;;;-2.10;100.00
62634;BME280;48704;50.534;6.442;2024-01-15T09:24:24;94103.78;;;-2.20;100.00
62634;BME280;48704;50.534;6.442;2024-01-15T09:26:49;94102.91;;;-2.17;100.00
62634;BME280;48704;50.534;6.442;2024-01-15T09:29:15;94101.38;;;-2.18;100.00
62634;BME280;48704;50.534;6.442;2024-01-15T09:31:41;94095.25;;;-2.22;100.00
62634;BME280;48704;50.534;6.442;2024-01-15T09:34:06;94104.44;;;-2.16;100.00
62634;BME280;48704;50.534;6.442;2024-01-15T09:36:32;94103.13;;;-2.24;100.00
62634;BME280;48704;50.534;6.442;2024-01-15T09:38:57;94111.31;;;-2.24;100.00
62634;BME280;48704;50.534;6.442;2024-01-15T09:41:23;94098.22;;;-2.16;100.00
62634;BME280;48704;50.534;6.442;2024-01-15T09:43:48;94090.78;;;-2.16;100.00
62634;BME280;48704;50.534;6.442;2024-01-15T09:46:14;94089.59;;;-2.15;100.00
62634;BME280;48704;50.534;6.442;2024-01-15T09:48:40;94102.38;;;-2.12;100.00
62634;BME280;48704;50.534;6.442;2024-01-15T09:51:06;94083.28;;;-2.12;100.00
62634;BME280;48704;50.534;6.442;2024-01-15T09:53:33;94079.34;;;-2.11;100.00
62634;BME280;48704;50.534;6.442;2024-01-15T09:55:59;94091.50;;;-1.99;100.00
62634;BME280;48704;50.534;6.442;2024-01-15T09:58:25;94101.78;;;-1.90;100.00
62634;BME280;48704;50.534;6.442;2024-01-15T10:00:50;94085.84;;;-1.92;100.00
62634;BME280;48704;50.534;6.442;2024-01-15T10:03:16;94089.00;;;-1.93;100.00
62634;BME280;48704;50.534;6.442;2024-01-15T10:05:43;94086.63;;;-1.91;100.00
62634;BME280;48704;50.534;6.442;2024-01-15T10:08:09;94089.59;;;-1.86;100.00
62634;BME280;48704;50.534;6.442;2024-01-15T10:10:36;94082.88;;;-1.97;100.00
62634;BME280;48704;50.534;6.442;2024-01-15T10:13:01;94082.41;;;-2.09;100.00
62634;BME280;48704;50.534;6.442;2024-01-15T10:15:28;94077.81;;;-2.12;100.00
62634;BME280;48704;50.534;6.442;2024-01-15T10:17:54;94080.94;;;-1.97;100.00
62634;BME280;48704;50.534;6.442;2024-01-15T10:20:20;94074.06;;;-1.89;100.00
62634;BME280;48704;50.534;6.442;2024-01-15T10:22:47;94091.22;;;-1.88;100.00
62634;BME280;48704;50.534;6.442;2024-01-15T10:25:13;94084.09;;;-1.98;100.00
62634;BME280;48704;50.534;6.442;2024-01-15T10:27:40;94087.88;;;-2.09;100.00
62634;BME280;48704;50.534;6.442;2024-01-15T10:30:07;94095.53;;;-2.04;100.00
62634;BME280;48704;50.534;6.442;2024-01-15T10:32:33;94091.59;;;-2.03;100.00
62634;BME280;48704;50.534;6.442;2024-01-15T10:34:58;94100.31;;;-2.08;100.00
62634;BME280;48704;50.534;6.442;2024-01-15T10:37:24;94090.44;;;-1.89;100.00
62634;BME280;48704;50.534;6.442;2024-01-15T10:39:49;94092.31;;;-1.86;100.00
62634;BME280;48704;50.534;6.442;2024-01-15T10:42:15;94104.63;;;-1.94;100.00
62634;BME280;48704;50.534;6.442;2024-01-15T10:44:41;94103.53;;;-1.96;100.00
62634;BME280;48704;50.534;6.442;2024-01-15T10:47:08;94103.09;;;-1.95;100.00
62634;BME280;48704;50.534;6.442;2024-01-15T10:49:33;94103.91;;;-1.69;100.00
62634;BME280;48704;50.534;6.442;2024-01-15T10:52:00;94081.97;;;-1.53;100.00
62634;BME280;48704;50.534;6.442;2024-01-15T10:54:26;94094.09;;;-1.54;100.00
62634;BME280;48704;50.534;6.442;2024-01-15T10:56:52;94091.69;;;-1.52;100.00
62634;BME280;48704;50.534;6.442;2024-01-15T10:59:20;94091.47;;;-1.19;100.00
62634;BME280;48704;50.534;6.442;2024-01-15T11:01:48;94087.75;;;-1.25;100.00
62634;BME280;48704;50.534;6.442;2024-01-15T11:04:13;94087.44;;;-1.27;100.00
62634;BME280;48704;50.534;6.442;2024-01-15T11:06:44;94090.59;;;-1.42;100.00
62634;BME280;48704;50.534;6.442;2024-01-15T11:09:10;94103.16;;;-1.44;100.00
62634;BME280;48704;50.534;6.442;2024-01-15T11:11:36;94077.03;;;-1.58;100.00
62634;BME280;48704;50.534;6.442;2024-01-15T11:14:04;94085.56;;;-1.30;100.00
62634;BME280;48704;50.534;6.442;2024-01-15T11:16:57;94108.09;;;-1.26;100.00
62634;BME280;48704;50.534;6.442;2024-01-15T11:19:24;94074.03;;;-0.75;100.00
62634;BME280;48704;50.534;6.442;2024-01-15T11:21:50;94074.09;;;-1.13;100.00
62634;BME280;48704;50.534;6.442;2024-01-15T11:24:35;94083.84;;;-1.50;100.00
62634;BME280;48704;50.534;6.442;2024-01-15T11:27:05;94088.19;;;-1.14;100.00
62634;BME280;48704;50.534;6.442;2024-01-15T11:29:32;94100.53;;;-1.22;100.00
62634;BME280;48704;50.534;6.442;2024-01-15T11:32:08;94103.50;;;-1.29;100.00
62634;BME280;48704;50.534;6.442;2024-01-15T11:34:54;94092.41;;;-0.88;100.00
62634;BME280;48704;50.534;6.442;2024-01-15T11:37:21;94091.97;;;-0.39;100.00
62634;BME280;48704;50.534;6.442;2024-01-15T11:39:51;94098.66;;;-1.00;100.00
62634;BME280;48704;50.534;6.442;2024-01-15T11:42:16;94103.56;;;-0.82;100.00
62634;BME280;48704;50.534;6.442;2024-01-15T11:44:43;94095.69;;;-0.93;100.00
62634;BME280;48704;50.534;6.442;2024-01-15T11:47:11;94110.53;;;-0.34;100.00
62634;BME280;48704;50.534;6.442;2024-01-15T11:49:58;94089.59;;;-0.97;100.00
62634;BME280;48704;50.534;6.442;2024-01-15T11:52:37;94111.84;;;-0.73;100.00
62634;BME280;48704;50.534;6.442;2024-01-15T11:55:22;94105.34;;;-1.14;100.00
62634;BME280;48704;50.534;6.442;2024-01-15T11:57:54;94092.44;;;-1.01;100.00
62634;BME280;48704;50.534;6.442;2024-01-15T12:00:21;94105.03;;;-1.28;100.00
62634;BME280;48704;50.534;6.442;2024-01-15T12:02:48;94126.44;;;-0.89;100.00
62634;BME280;48704;50.534;6.442;2024-01-15T12:05:15;94110.69;;;-1.10;100.00
62634;BME280;48704;50.534;6.442;2024-01-15T12:07:42;94110.50;;;-1.28;100.00
62634;BME280;48704;50.534;6.442;2024-01-15T12:10:14;94107.97;;;-1.36;100.00
62634;BME280;48704;50.534;6.442;2024-01-15T12:15:17;94109.88;;;0.71;100.00
62634;BME280;48704;50.534;6.442;2024-01-15T12:17:42;94105.22;;;0.06;100.00
62634;BME280;48704;50.534;6.442;2024-01-15T12:20:09;94108.44;;;0.57;100.00
62634;BME280;48704;50.534;6.442;2024-01-15T12:22:34;94110.16;;;0.64;100.00
62634;BME280;48704;50.534;6.442;2024-01-15T12:25:00;94098.84;;;0.31;100.00
62634;BME280;48704;50.534;6.442;2024-01-15T12:27:25;94102.94;;;0.57;100.00
62634;BME280;48704;50.534;6.442;2024-01-15T12:29:53;94093.22;;;0.96;100.00
62634;BME280;48704;50.534;6.442;2024-01-15T12:32:18;94099.19;;;1.13;100.00
62634;BME280;48704;50.534;6.442;2024-01-15T12:34:44;94106.22;;;1.05;100.00
62634;BME280;48704;50.534;6.442;2024-01-15T12:37:09;94108.22;;;0.74;100.00
62634;BME280;48704;50.534;6.442;2024-01-15T12:39:36;94115.00;;;0.60;100.00
62634;BME280;48704;50.534;6.442;2024-01-15T12:42:02;94109.41;;;0.42;100.00
62634;BME280;48704;50.534;6.442;2024-01-15T12:44:28;94115.53;;;0.46;100.00
62634;BME280;48704;50.534;6.442;2024-01-15T12:46:53;94117.78;;;0.69;100.00
62634;BME280;48704;50.534;6.442;2024-01-15T12:49:19;94130.00;;;1.17;100.00
62634;BME280;48704;50.534;6.442;2024-01-15T12:51:52;94129.09;;;0.49;100.00